Time;durP1;ratioP1;P1;durP2;ratioP2;P2;SDS_P1;SDS_P2;PMS_P1;PMS_P2;Temp;Humidity;BMP_temperature;BMP_pressure;BME280_temperature;BME280_humidity;BME280_pressure;Samples;Min_cycle;Max_cycle;Signal;HPM_P1;HPM_P2
2022/08/19 00:01:22;;;;;;;8.70;4.47;;;21.90;99.90;;;;;;4993801;28;20729;-67
2022/08/19 00:03:49;;;;;;;10.37;4.70;;;21.90;99.90;;;;;;4994859;28;20310;-67
2022/08/19 00:06:17;;;;;;;7.07;4.30;;;21.90;99.90;;;;;;5007257;28;20273;-67
2022/08/19 00:08:44;;;;;;;12.17;4.57;;;21.90;99.90;;;;;;4988411;28;20784;-66
2022/08/19 00:11:12;;;;;;;11.73;5.03;;;21.80;99.90;;;;;;5006563;28;20559;-68
2022/08/19 00:13:39;;;;;;;11.67;4.90;;;21.80;99.90;;;;;;5013165;28;20202;-68
2022/08/19 00:16:07;;;;;;;7.73;4.40;;;21.80;99.90;;;;;;4993053;28;20298;-67
2022/08/19 00:18:35;;;;;;;8.03;4.90;;;21.80;99.90;;;;;;5010589;28;20207;-68
2022/08/19 00:21:02;;;;;;;9.07;4.83;;;21.70;99.90;;;;;;5012925;28;20238;-68
2022/08/19 00:23:29;;;;;;;8.47;4.70;;;21.70;99.90;;;;;;5013059;28;20206;-67
2022/08/19 00:25:56;;;;;;;10.93;4.77;;;21.70;99.90;;;;;;4998603;28;20211;-67
2022/08/19 00:28:23;;;;;;;10.37;5.37;;;21.60;99.90;;;;;;4992215;28;20211;-66
2022/08/19 00:30:51;;;;;;;9.23;4.97;;;21.60;99.90;;;;;;4993576;28;20758;-67
2022/08/19 00:33:18;;;;;;;10.13;5.00;;;21.60;99.90;;;;;;4991772;28;20600;-67
2022/08/19 00:35:46;;;;;;;9.70;4.90;;;21.60;99.90;;;;;;4974390;28;20299;-68
2022/08/19 00:38:13;;;;;;;10.90;5.07;;;21.50;99.90;;;;;;4973376;28;20278;-67
2022/08/19 00:40:43;;;;;;;9.20;4.70;;;21.50;99.90;;;;;;4973822;28;20236;-67
2022/08/19 00:43:12;;;;;;;9.50;5.23;;;21.50;99.90;;;;;;4979842;28;20513;-68
2022/08/19 00:45:41;;;;;;;11.53;5.20;;;21.50;99.90;;;;;;4993347;28;20207;-68
2022/08/19 00:48:09;;;;;;;9.63;4.77;;;21.50;99.90;;;;;;4992872;28;20314;-68
2022/08/19 00:50:36;;;;;;;11.73;5.20;;;21.50;99.90;;;;;;4993272;28;20741;-67
2022/08/19 00:53:05;;;;;;;9.50;5.23;;;21.40;99.90;;;;;;4990747;28;20624;-67
2022/08/19 00:55:34;;;;;;;10.60;5.00;;;21.40;99.90;;;;;;4992879;28;20250;-67
2022/08/19 00:58:04;;;;;;;13.10;5.30;;;21.40;99.90;;;;;;4992924;28;20701;-68
2022/08/19 01:00:33;;;;;;;10.83;5.30;;;21.40;99.90;;;;;;4992997;28;20235;-67
2022/08/19 01:03:00;;;;;;;9.03;4.80;;;21.40;99.90;;;;;;4991494;28;20628;-68
2022/08/19 01:05:29;;;;;;;10.27;5.33;;;21.30;99.90;;;;;;4992781;28;20258;-68
2022/08/19 01:07:59;;;;;;;11.00;5.97;;;21.30;99.90;;;;;;4992410;28;20320;-67
2022/08/19 01:10:30;;;;;;;10.03;4.70;;;21.30;99.90;;;;;;4992351;28;20298;-68
2022/08/19 01:13:00;;;;;;;10.40;5.60;;;21.20;99.90;;;;;;4990574;28;20202;-68
2022/08/19 01:15:30;;;;;;;15.30;5.63;;;21.20;99.90;;;;;;4992750;28;20710;-67
2022/08/19 01:17:59;;;;;;;11.33;4.87;;;21.20;99.90;;;;;;4992203;28;20198;-67
2022/08/19 01:20:26;;;;;;;13.93;5.87;;;21.20;99.90;;;;;;4992596;28;20302;-67
2022/08/19 01:22:56;;;;;;;10.27;5.40;;;21.20;99.90;;;;;;4992494;28;20215;-67
2022/08/19 01:25:27;;;;;;;10.77;5.43;;;21.20;99.90;;;;;;4991593;28;20301;-67
2022/08/19 01:27:55;;;;;;;10.43;5.33;;;21.20;99.90;;;;;;4992375;28;20298;-67
2022/08/19 01:30:25;;;;;;;8.93;4.90;;;21.10;99.90;;;;;;4992304;28;20207;-68
2022/08/19 01:32:53;;;;;;;11.07;5.60;;;21.10;99.90;;;;;;4991985;28;20238;-68
2022/08/19 01:35:23;;;;;;;11.13;5.57;;;21.10;99.90;;;;;;4991627;28;20293;-67
2022/08/19 01:37:53;;;;;;;12.47;5.77;;;21.00;99.90;;;;;;4991936;28;20729;-67
2022/08/19 01:40:22;;;;;;;9.03;5.53;;;21.00;99.90;;;;;;4985207;28;20307;-66
2022/08/19 01:42:50;;;;;;;11.07;6.07;;;21.00;99.90;;;;;;4991659;28;20203;-68
2022/08/19 01:45:17;;;;;;;14.17;6.27;;;20.90;99.90;;;;;;4990695;28;20309;-67
2022/08/19 01:47:44;;;;;;;12.20;5.87;;;20.90;99.90;;;;;;4989693;28;20262;-66
2022/08/19 01:50:12;;;;;;;9.80;5.40;;;20.80;99.90;;;;;;4994302;28;20292;-67
2022/08/19 01:52:40;;;;;;;9.57;5.73;;;20.90;99.90;;;;;;4994833;28;20210;-68
2022/08/19 01:55:10;;;;;;;17.07;6.07;;;20.80;99.90;;;;;;4996327;28;20214;-67
2022/08/19 01:57:40;;;;;;;11.50;6.10;;;20.80;99.90;;;;;;4995419;28;20255;-68
2022/08/19 02:00:10;;;;;;;10.53;6.23;;;20.80;99.90;;;;;;4996213;28;20747;-67
2022/08/19 02:02:37;;;;;;;10.57;5.90;;;20.80;99.90;;;;;;4995404;28;20287;-67
2022/08/19 02:05:04;;;;;;;8.63;5.20;;;20.80;99.90;;;;;;4995911;28;20258;-67
2022/08/19 02:07:32;;;;;;;11.07;5.87;;;20.70;99.90;;;;;;4995579;28;20235;-68
2022/08/19 02:09:59;;;;;;;8.80;5.33;;;20.70;99.90;;;;;;4990101;28;20207;-67
2022/08/19 02:12:26;;;;;;;8.93;5.63;;;20.70;99.90;;;;;;4994509;28;20217;-68
2022/08/19 02:14:54;;;;;;;11.27;5.20;;;20.70;99.90;;;;;;4995695;28;20305;-68
2022/08/19 02:17:21;;;;;;;12.77;6.03;;;20.70;99.90;;;;;;4995642;28;20260;-67
2022/08/19 02:19:48;;;;;;;11.83;5.63;;;20.70;99.90;;;;;;4992979;28;20210;-68
2022/08/19 02:22:15;;;;;;;10.57;5.70;;;20.60;99.90;;;;;;4995342;28;20215;-68
2022/08/19 02:24:42;;;;;;;12.40;5.77;;;20.60;99.90;;;;;;4995204;28;20214;-67
2022/08/19 02:27:09;;;;;;;10.83;6.23;;;20.60;99.90;;;;;;4995388;28;20229;-68
2022/08/19 02:29:36;;;;;;;10.27;5.50;;;20.60;99.90;;;;;;4995355;28;20250;-68
2022/08/19 02:32:05;;;;;;;14.83;6.23;;;20.60;99.90;;;;;;4994828;28;20295;-68
2022/08/19 02:34:32;;;;;;;10.43;6.07;;;20.50;99.90;;;;;;4995813;28;20668;-68
2022/08/19 02:36:59;;;;;;;14.97;5.97;;;20.50;99.90;;;;;;4995000;28;20677;-67
2022/08/19 02:39:24;;;;;;;9.70;6.30;;;20.50;99.90;;;;;;4993836;28;20670;-68
2022/08/19 02:41:51;;;;;;;11.37;5.60;;;20.40;99.90;;;;;;4995119;28;20289;-66
2022/08/19 02:44:19;;;;;;;11.00;5.83;;;20.40;99.90;;;;;;4995155;28;20203;-67
2022/08/19 02:46:47;;;;;;;12.07;6.57;;;20.40;99.90;;;;;;4994943;28;20306;-67
2022/08/19 02:49:16;;;;;;;10.90;6.30;;;20.40;99.90;;;;;;4995210;28;20298;-66
2022/08/19 02:51:45;;;;;;;12.10;6.50;;;20.40;99.90;;;;;;4993238;28;20203;-67
2022/08/19 02:54:13;;;;;;;8.63;5.80;;;20.30;99.90;;;;;;4994991;28;20209;-66
2022/08/19 02:56:42;;;;;;;10.83;6.27;;;20.30;99.90;;;;;;4994824;28;20298;-68
2022/08/19 02:59:09;;;;;;;12.43;6.27;;;20.30;99.90;;;;;;4994872;28;20216;-67
2022/08/19 03:01:37;;;;;;;12.27;6.50;;;20.20;99.90;;;;;;4994151;28;20709;-68
2022/08/19 03:04:07;;;;;;;12.10;6.20;;;20.20;99.90;;;;;;4994490;28;20270;-67
2022/08/19 03:06:38;;;;;;;13.30;7.00;;;20.20;99.90;;;;;;4974973;28;20196;-67
2022/08/19 03:09:05;;;;;;;12.03;6.57;;;20.20;99.90;;;;;;4975432;28;20645;-68
2022/08/19 03:11:33;;;;;;;9.70;5.80;;;20.20;99.90;;;;;;4975210;28;20241;-68
2022/08/19 03:14:01;;;;;;;9.97;6.73;;;20.20;99.90;;;;;;4975020;28;20208;-66
2022/08/19 03:16:40;;;;;;;9.30;5.83;;;20.20;99.90;;;;;;4975185;28;20265;-67
2022/08/19 03:19:07;;;;;;;11.57;6.50;;;20.10;99.90;;;;;;4976717;28;20239;-67
2022/08/19 03:21:36;;;;;;;11.07;6.10;;;20.10;99.90;;;;;;4994446;28;20668;-69
2022/08/19 03:24:05;;;;;;;12.73;6.07;;;20.10;99.90;;;;;;4994334;28;20204;-68
2022/08/19 03:26:32;;;;;;;12.00;6.20;;;20.10;99.90;;;;;;4994268;28;20211;-68
2022/08/19 03:29:03;;;;;;;12.00;6.00;;;20.10;99.90;;;;;;4994375;28;20635;-67
2022/08/19 03:31:31;;;;;;;11.80;6.23;;;20.10;99.90;;;;;;4994278;28;20643;-68
2022/08/19 03:33:58;;;;;;;13.00;6.47;;;20.10;99.90;;;;;;4991844;28;20224;-68
2022/08/19 03:36:27;;;;;;;14.10;7.60;;;20.20;99.90;;;;;;4991075;28;20203;-68
2022/08/19 03:38:58;;;;;;;9.90;5.93;;;20.10;99.90;;;;;;4992688;28;20243;-67
2022/08/19 03:41:28;;;;;;;12.93;6.43;;;20.10;99.90;;;;;;4994575;28;20196;-67
2022/08/19 03:43:56;;;;;;;13.40;6.60;;;20.10;99.90;;;;;;4993612;28;20244;-68
2022/08/19 03:46:25;;;;;;;12.87;6.00;;;20.20;99.90;;;;;;4974641;28;20288;-67
2022/08/19 03:48:55;;;;;;;10.13;5.83;;;20.20;99.90;;;;;;4974233;28;20230;-67
2022/08/19 03:51:24;;;;;;;10.70;6.10;;;20.20;99.90;;;;;;4988821;28;20594;-67
2022/08/19 03:53:52;;;;;;;11.23;5.90;;;20.20;99.90;;;;;;4993935;28;20207;-68
2022/08/19 03:56:20;;;;;;;14.50;6.67;;;20.30;99.90;;;;;;4993730;28;20299;-67
2022/08/19 03:58:48;;;;;;;12.10;6.00;;;20.30;99.90;;;;;;4993601;28;20230;-66
2022/08/19 04:01:18;;;;;;;12.67;6.37;;;20.30;99.90;;;;;;4993651;28;20237;-67
2022/08/19 04:03:46;;;;;;;12.80;5.57;;;20.30;99.90;;;;;;4993290;28;20199;-67
2022/08/19 04:06:14;;;;;;;12.50;5.90;;;20.30;99.90;;;;;;4992539;28;20223;-68
2022/08/19 04:08:42;;;;;;;13.60;6.43;;;20.40;99.90;;;;;;4993073;28;20804;-68
2022/08/19 04:11:09;;;;;;;13.67;6.23;;;20.40;99.90;;;;;;4993561;28;20278;-68
2022/08/19 04:13:38;;;;;;;11.70;5.80;;;20.50;99.90;;;;;;4992714;28;20300;-69
2022/08/19 04:16:05;;;;;;;9.90;5.93;;;20.50;99.90;;;;;;4993684;28;20307;-67
2022/08/19 04:18:32;;;;;;;11.63;6.30;;;20.50;99.90;;;;;;4992324;28;20221;-69
2022/08/19 04:21:00;;;;;;;11.23;6.50;;;20.50;99.90;;;;;;4993164;28;20245;-68
2022/08/19 04:23:27;;;;;;;11.37;6.13;;;20.50;99.90;;;;;;4993093;28;20296;-68
2022/08/19 04:25:55;;;;;;;14.70;6.70;;;20.50;99.90;;;;;;4993083;28;20211;-67
2022/08/19 04:28:23;;;;;;;11.10;6.00;;;20.50;99.90;;;;;;4992892;28;20320;-67
2022/08/19 04:30:54;;;;;;;12.43;6.10;;;20.50;99.90;;;;;;4993703;28;20303;-69
2022/08/19 04:33:23;;;;;;;16.57;5.90;;;20.60;99.90;;;;;;4992252;28;20242;-67
2022/08/19 04:35:52;;;;;;;12.73;5.83;;;20.60;99.90;;;;;;4992885;28;20219;-67
2022/08/19 04:38:22;;;;;;;8.37;5.40;;;20.60;99.90;;;;;;4991924;28;20273;-68
2022/08/19 04:43:38;;;;;;;13.27;5.50;;;20.70;99.90;;;;;;4992984;28;20187;-70
2022/08/19 04:46:08;;;;;;;12.90;6.90;;;20.80;99.90;;;;;;4992153;28;20686;-69
2022/08/19 04:48:36;;;;;;;14.07;6.33;;;20.80;99.90;;;;;;4992495;28;20261;-67
2022/08/19 04:51:06;;;;;;;11.20;5.60;;;20.80;99.90;;;;;;4988905;28;20214;-68
2022/08/19 04:53:35;;;;;;;9.67;5.27;;;20.90;99.90;;;;;;4987273;28;20222;-68
2022/08/19 04:56:08;;;;;;;12.50;5.50;;;20.90;99.90;;;;;;4973230;28;20214;-68
2022/08/19 04:58:35;;;;;;;8.43;5.57;;;20.90;99.90;;;;;;4973300;28;20544;-69
2022/08/19 05:01:03;;;;;;;14.40;5.73;;;21.00;99.90;;;;;;4973180;28;20617;-69
2022/08/19 05:03:33;;;;;;;12.00;5.37;;;21.00;99.90;;;;;;4973186;28;20302;-68
2022/08/19 05:06:05;;;;;;;8.83;5.23;;;21.10;99.90;;;;;;4973147;28;20196;-67
2022/08/19 05:08:33;;;;;;;11.37;6.30;;;21.10;99.90;;;;;;4984767;28;20246;-67
2022/08/19 05:11:00;;;;;;;9.43;5.77;;;21.20;99.90;;;;;;4991292;28;20614;-68
2022/08/19 05:13:27;;;;;;;16.33;6.20;;;21.20;99.90;;;;;;4986625;28;20207;-68
2022/08/19 05:15:55;;;;;;;17.07;6.00;;;21.20;99.90;;;;;;4991393;28;20605;-68
2022/08/19 05:23:57;;;;;;;10.83;5.37;;;21.30;99.90;;;;;;4960924;28;20199;-68
2022/08/19 05:26:25;;;;;;;12.70;5.70;;;21.30;99.90;;;;;;4976702;28;20200;-68
2022/08/19 05:28:52;;;;;;;12.40;5.77;;;21.40;99.90;;;;;;4990281;28;20238;-69
2022/08/19 05:31:20;;;;;;;14.17;5.37;;;21.40;99.90;;;;;;4991792;28;20210;-69
2022/08/19 05:33:47;;;;;;;13.43;6.10;;;21.40;99.90;;;;;;4988714;28;20203;-68
2022/08/19 05:36:15;;;;;;;9.50;5.10;;;21.50;99.90;;;;;;4991648;28;20580;-68
2022/08/19 05:38:42;;;;;;;10.93;5.20;;;21.50;99.90;;;;;;4991087;28;20231;-67
2022/08/19 05:41:12;;;;;;;14.17;7.87;;;21.50;99.90;;;;;;4991202;28;20730;-68
2022/08/19 05:43:39;;;;;;;13.80;5.63;;;21.60;99.90;;;;;;4990901;28;20239;-68
2022/08/19 05:46:08;;;;;;;11.47;5.00;;;21.60;99.90;;;;;;4990906;28;20217;-69
2022/08/19 05:48:36;;;;;;;12.50;5.07;;;21.70;99.90;;;;;;4990266;28;20233;-68
2022/08/19 05:51:06;;;;;;;10.03;4.70;;;21.70;99.90;;;;;;4991391;28;20199;-68
2022/08/19 05:53:36;;;;;;;12.50;5.37;;;21.80;99.90;;;;;;4988234;28;20203;-69
2022/08/19 05:56:05;;;;;;;8.97;5.20;;;21.80;99.90;;;;;;4988242;28;20259;-69
2022/08/19 05:58:32;;;;;;;10.63;5.60;;;21.90;99.90;;;;;;4990986;28;20211;-70
2022/08/19 06:01:04;;;;;;;11.27;5.50;;;21.90;99.90;;;;;;4990780;28;20632;-69
2022/08/19 06:03:31;;;;;;;25.97;5.83;;;21.90;99.90;;;;;;4990260;28;20250;-70
2022/08/19 06:06:00;;;;;;;8.63;5.17;;;21.90;99.90;;;;;;4989959;28;20290;-68
2022/08/19 06:08:27;;;;;;;10.63;5.37;;;21.90;99.90;;;;;;4988523;28;20648;-68
2022/08/19 06:10:56;;;;;;;10.73;5.60;;;21.90;99.90;;;;;;4990589;28;20203;-67
2022/08/19 06:13:24;;;;;;;15.00;5.70;;;22.00;99.90;;;;;;4981599;28;20211;-68
2022/08/19 06:15:51;;;;;;;20.07;8.13;;;22.00;99.90;;;;;;4977385;28;20213;-67
2022/08/19 06:18:18;;;;;;;16.60;6.17;;;22.10;99.90;;;;;;4972342;28;20291;-69
2022/08/19 06:20:45;;;;;;;13.43;6.30;;;22.10;99.90;;;;;;4972928;28;20438;-68
2022/08/19 06:23:12;;;;;;;12.87;5.63;;;22.20;99.90;;;;;;4991220;28;20214;-68
2022/08/19 06:25:40;;;;;;;13.00;5.07;;;22.20;99.90;;;;;;4991749;28;20238;-69
2022/08/19 06:28:09;;;;;;;10.67;5.23;;;22.20;99.90;;;;;;4990807;28;20234;-68
2022/08/19 06:30:37;;;;;;;10.73;5.50;;;22.20;99.90;;;;;;4989760;28;20590;-70
2022/08/19 06:33:04;;;;;;;11.17;4.87;;;22.20;99.90;;;;;;4991168;28;20208;-70
2022/08/19 06:35:31;;;;;;;12.60;5.10;;;22.30;99.90;;;;;;4989645;28;20207;-69
2022/08/19 06:37:58;;;;;;;10.37;5.07;;;22.30;99.90;;;;;;4988556;28;20240;-71
2022/08/19 06:40:27;;;;;;;12.37;5.63;;;22.40;99.90;;;;;;4994844;28;20202;-68
2022/08/19 06:42:55;;;;;;;10.17;5.20;;;22.50;99.90;;;;;;4995181;28;20254;-69
2022/08/19 06:45:24;;;;;;;13.53;5.43;;;22.60;99.90;;;;;;4995018;28;20238;-67
2022/08/19 06:47:53;;;;;;;9.57;4.67;;;22.70;99.90;;;;;;4994980;28;20264;-67
2022/08/19 06:50:21;;;;;;;10.57;4.80;;;22.70;99.90;;;;;;4995116;28;20227;-68
2022/08/19 06:52:48;;;;;;;11.07;5.30;;;22.70;99.90;;;;;;4992529;28;20215;-69
2022/08/19 06:55:16;;;;;;;16.70;5.10;;;22.70;99.90;;;;;;4990334;28;20297;-71
2022/08/19 06:57:45;;;;;;;11.30;5.20;;;22.80;99.90;;;;;;4987100;28;20263;-73
2022/08/19 07:00:13;;;;;;;8.97;4.30;;;22.80;99.90;;;;;;4990801;28;20209;-69
2022/08/19 07:02:42;;;;;;;10.23;4.60;;;22.90;99.90;;;;;;4993422;28;20293;-69
2022/08/19 07:05:09;;;;;;;10.53;4.53;;;22.90;99.90;;;;;;4987863;28;20308;-68
2022/08/19 07:07:36;;;;;;;9.20;4.83;;;23.00;99.90;;;;;;4993269;28;20214;-68
2022/08/19 07:10:05;;;;;;;20.53;6.23;;;23.10;99.90;;;;;;4993954;28;20228;-67
2022/08/19 07:12:34;;;;;;;12.83;4.90;;;23.10;99.90;;;;;;4994624;28;20324;-68
2022/08/19 07:15:01;;;;;;;8.10;4.70;;;23.20;99.90;;;;;;4994381;28;20215;-70
2022/08/19 07:17:28;;;;;;;13.57;5.23;;;23.20;99.90;;;;;;4992320;28;20714;-69
2022/08/19 07:19:56;;;;;;;11.00;5.30;;;23.20;99.90;;;;;;4994417;28;20634;-68
2022/08/19 07:22:23;;;;;;;10.23;5.43;;;23.30;99.90;;;;;;4993870;28;20306;-68
2022/08/19 07:24:50;;;;;;;13.67;5.37;;;23.30;99.90;;;;;;4994300;28;20304;-68
2022/08/19 07:27:18;;;;;;;10.53;4.80;;;23.30;99.90;;;;;;4994311;28;20305;-67
2022/08/19 07:29:45;;;;;;;10.63;4.87;;;23.40;99.90;;;;;;4994093;28;20785;-68
2022/08/19 07:32:12;;;;;;;11.53;4.97;;;23.50;99.90;;;;;;4994001;28;20599;-67
2022/08/19 07:34:39;;;;;;;11.70;4.87;;;23.60;99.90;;;;;;4990606;28;20219;-68
2022/08/19 07:37:08;;;;;;;10.23;4.50;;;23.60;99.90;;;;;;4993473;28;20246;-69
2022/08/19 07:39:38;;;;;;;15.40;5.50;;;23.60;99.90;;;;;;4994189;28;20226;-69
2022/08/19 07:42:08;;;;;;;11.90;5.20;;;23.60;99.90;;;;;;4993771;28;20293;-68
2022/08/19 07:44:36;;;;;;;12.80;5.00;;;23.60;99.90;;;;;;4993957;28;20238;-67
2022/08/19 07:47:04;;;;;;;12.43;5.10;;;23.70;99.90;;;;;;4993739;28;20312;-68
2022/08/19 07:49:31;;;;;;;10.13;5.13;;;23.70;99.90;;;;;;4992550;28;20736;-69
2022/08/19 07:52:01;;;;;;;15.13;5.53;;;23.80;99.90;;;;;;4993534;28;20217;-68
2022/08/19 07:54:33;;;;;;;12.43;5.13;;;23.90;99.90;;;;;;4993509;28;20190;-69
2022/08/19 07:57:00;;;;;;;15.30;5.10;;;23.90;99.90;;;;;;4993141;28;20199;-67
2022/08/19 07:59:29;;;;;;;9.97;5.07;;;23.90;99.90;;;;;;4993778;28;20312;-68
2022/08/19 08:01:59;;;;;;;16.03;5.63;;;23.90;99.90;;;;;;4991944;28;20225;-68
2022/08/19 08:09:56;;;;;;;12.30;5.30;;;24.00;99.90;;;;;;4993195;28;20222;-67
2022/08/19 08:12:28;;;;;;;13.47;5.43;;;24.00;99.90;;;;;;4993452;28;20563;-69
2022/08/19 08:14:57;;;;;;;11.67;5.07;;;24.00;99.90;;;;;;4989444;28;20250;-68
2022/08/19 08:17:26;;;;;;;17.43;5.47;;;24.10;99.90;;;;;;4991418;28;20214;-68
2022/08/19 08:19:54;;;;;;;10.50;5.10;;;24.10;99.90;;;;;;4992254;28;20216;-68
2022/08/19 08:25:11;;;;;;;18.27;6.07;;;24.10;99.90;;;;;;4990386;28;20691;-68
2022/08/19 08:27:39;;;;;;;11.70;5.70;;;24.10;99.90;;;;;;5006233;28;20554;-69
2022/08/19 08:30:09;;;;;;;23.10;5.90;;;24.20;99.90;;;;;;5008918;28;20242;-71
2022/08/19 08:32:36;;;;;;;12.73;5.47;;;24.20;99.90;;;;;;4992391;28;20732;-70
2022/08/19 08:35:04;;;;;;;14.43;5.23;;;24.20;99.90;;;;;;4993148;28;20214;-69
2022/08/19 08:37:31;;;;;;;9.93;5.27;;;24.30;99.90;;;;;;4993388;28;20674;-69
2022/08/19 08:39:58;;;;;;;21.63;5.60;;;24.30;99.90;;;;;;4990248;28;20199;-68
2022/08/19 08:42:32;;;;;;;12.63;5.10;;;24.30;99.90;;;;;;4992970;28;20721;-67
2022/08/19 08:45:03;;;;;;;16.07;5.03;;;24.30;99.90;;;;;;4993018;28;20191;-67
2022/08/19 08:47:38;;;;;;;15.93;5.40;;;24.40;99.90;;;;;;4993123;28;20220;-68
2022/08/19 08:50:10;;;;;;;15.57;5.63;;;24.40;99.90;;;;;;4995755;28;20297;-69
2022/08/19 08:52:43;;;;;;;12.77;5.47;;;24.50;99.90;;;;;;4973730;28;20632;-67
2022/08/19 08:55:14;;;;;;;11.73;5.23;;;24.50;99.90;;;;;;5000330;28;20206;-69
2022/08/19 08:57:54;;;;;;;9.03;5.73;;;24.50;99.90;;;;;;4992700;28;20224;-68
2022/08/19 09:00:27;;;;;;;13.40;5.57;;;24.60;99.90;;;;;;5000422;28;20705;-68
2022/08/19 09:02:55;;;;;;;17.30;5.80;;;24.60;99.90;;;;;;5012465;28;20190;-69
2022/08/19 09:05:23;;;;;;;15.73;5.40;;;24.70;99.90;;;;;;5010901;28;20632;-68
2022/08/19 09:07:59;;;;;;;16.23;5.40;;;24.70;99.90;;;;;;5011896;28;20213;-70
2022/08/19 09:10:32;;;;;;;14.47;5.43;;;24.70;99.90;;;;;;5003629;28;20213;-70
2022/08/19 09:13:08;;;;;;;10.33;5.10;;;24.70;99.90;;;;;;4994576;28;20622;-68
2022/08/19 09:15:40;;;;;;;13.73;5.60;;;24.70;99.90;;;;;;4998470;28;20736;-69
2022/08/19 09:18:09;;;;;;;20.77;5.90;;;24.60;99.90;;;;;;4997979;28;20277;-71
2022/08/19 09:20:36;;;;;;;16.40;5.70;;;24.50;99.90;;;;;;5012168;28;20301;-72
2022/08/19 09:23:04;;;;;;;13.73;5.53;;;24.60;99.90;;;;;;5007526;28;20214;-70
2022/08/19 09:25:32;;;;;;;12.90;5.83;;;24.70;99.90;;;;;;4992870;28;20240;-69
2022/08/19 09:28:03;;;;;;;13.70;5.75;;;24.80;99.90;;;;;;4993003;28;20204;-69
2022/08/19 09:30:39;;;;;;;12.87;5.40;;;24.80;99.90;;;;;;4972855;28;20253;-69
2022/08/19 09:33:06;;;;;;;14.10;5.70;;;24.90;99.90;;;;;;4973169;28;20190;-67
2022/08/19 09:35:33;;;;;;;12.23;5.17;;;24.90;99.90;;;;;;4986442;28;20299;-67
2022/08/19 09:38:00;;;;;;;15.10;5.63;;;24.90;99.90;;;;;;4992393;28;20327;-67
2022/08/19 09:40:28;;;;;;;15.43;5.33;;;25.00;99.90;;;;;;4993022;28;20749;-69
2022/08/19 09:42:57;;;;;;;9.93;5.10;;;25.00;99.90;;;;;;4992661;28;20665;-68
2022/08/19 09:45:25;;;;;;;13.17;5.90;;;25.00;99.90;;;;;;4992767;28;20610;-70
2022/08/19 09:47:53;;;;;;;16.00;6.40;;;25.10;99.90;;;;;;4989775;28;20294;-68
2022/08/19 09:50:22;;;;;;;15.57;5.67;;;25.10;99.90;;;;;;4992606;28;20258;-67
2022/08/19 09:52:48;;;;;;;12.00;5.87;;;25.10;99.90;;;;;;4992280;28;20303;-68
2022/08/19 09:55:15;;;;;;;15.20;5.45;;;25.10;99.90;;;;;;4992794;28;20234;-67
2022/08/19 09:57:43;;;;;;;13.37;5.83;;;25.20;99.90;;;;;;4992040;28;20211;-70
2022/08/19 10:00:11;;;;;;;12.50;5.60;;;25.30;99.90;;;;;;4992159;28;20240;-68
2022/08/19 10:02:39;;;;;;;12.05;5.82;;;25.30;99.90;;;;;;4991026;28;20239;-70
2022/08/19 10:07:51;;;;;;;16.10;6.05;;;25.50;99.90;;;;;;4995033;28;20276;-68
2022/08/19 10:10:18;;;;;;;8.98;5.18;;;25.50;99.90;;;;;;4993191;28;20235;-69
2022/08/19 10:12:47;;;;;;;14.25;5.90;;;25.50;99.90;;;;;;4996010;28;20299;-68
2022/08/19 10:15:14;;;;;;;13.40;5.63;;;25.60;99.90;;;;;;4994860;28;20252;-70
2022/08/19 10:17:42;;;;;;;8.85;5.32;;;25.70;99.90;;;;;;4995660;28;20209;-68
2022/08/19 10:20:10;;;;;;;16.30;6.00;;;25.60;99.90;;;;;;4996069;28;20205;-68
2022/08/19 10:22:37;;;;;;;15.25;5.85;;;25.70;99.90;;;;;;4996324;28;20667;-70
2022/08/19 10:25:06;;;;;;;72.28;9.40;;;25.80;99.90;;;;;;4996471;28;20465;-69
2022/08/19 10:27:33;;;;;;;14.25;5.72;;;25.80;99.90;;;;;;4996153;28;20668;-70
2022/08/19 10:30:01;;;;;;;12.48;5.65;;;26.00;99.90;;;;;;4994427;28;20314;-70
2022/08/19 10:32:29;;;;;;;16.73;5.40;;;26.00;99.90;;;;;;4995612;28;20217;-69
2022/08/19 10:34:57;;;;;;;12.10;5.47;;;26.00;99.90;;;;;;4995952;28;20302;-69
2022/08/19 10:37:24;;;;;;;13.65;5.20;;;26.00;99.90;;;;;;4995747;28;20324;-68
2022/08/19 10:39:51;;;;;;;10.52;5.97;;;25.90;99.90;;;;;;4995463;28;20471;-70
2022/08/19 10:42:18;;;;;;;11.65;5.20;;;26.00;99.90;;;;;;4995805;28;20558;-69
2022/08/19 10:44:46;;;;;;;13.52;5.72;;;25.90;99.90;;;;;;4994266;28;20257;-68
2022/08/19 10:47:14;;;;;;;13.27;5.90;;;25.90;99.90;;;;;;5002444;28;20237;-70
2022/08/19 10:52:35;;;;;;;13.45;6.05;;;26.00;99.90;;;;;;4995649;28;20206;-70
2022/08/19 10:57:47;;;;;;;12.98;5.13;;;26.00;99.90;;;;;;5012504;28;20760;-70
2022/08/19 11:00:14;;;;;;;12.75;5.15;;;26.00;99.90;;;;;;4995388;28;20297;-69
2022/08/19 11:02:42;;;;;;;11.50;5.70;;;26.00;99.90;;;;;;4995538;28;20245;-69
2022/08/19 11:05:11;;;;;;;11.45;5.68;;;26.00;99.90;;;;;;4995555;28;20565;-71
2022/08/19 11:07:40;;;;;;;13.43;5.53;;;25.90;99.90;;;;;;4995262;28;20396;-68
2022/08/19 11:10:09;;;;;;;12.98;4.80;;;25.90;99.90;;;;;;4995538;28;20237;-69
2022/08/19 11:12:39;;;;;;;11.50;5.60;;;25.80;99.90;;;;;;4995207;28;20216;-68
2022/08/19 11:15:10;;;;;;;11.65;5.05;;;25.90;99.90;;;;;;4995107;28;20244;-69
2022/08/19 11:17:42;;;;;;;18.02;5.47;;;25.90;99.90;;;;;;4994800;28;20197;-68
2022/08/19 11:20:10;;;;;;;16.92;5.72;;;25.90;99.90;;;;;;4994828;28;20289;-68
2022/08/19 11:22:37;;;;;;;14.07;4.97;;;25.90;99.90;;;;;;4992958;28;20292;-72
2022/08/19 11:25:07;;;;;;;13.18;4.90;;;26.00;99.90;;;;;;4976513;28;20268;-72
2022/08/19 11:27:34;;;;;;;14.18;5.15;;;26.00;99.90;;;;;;4975904;28;20314;-72
2022/08/19 11:30:03;;;;;;;8.43;4.90;;;25.90;99.90;;;;;;4975210;28;20295;-72
2022/08/19 11:32:30;;;;;;;9.27;4.53;;;25.90;99.90;;;;;;4976093;28;20220;-73
2022/08/19 11:34:57;;;;;;;9.45;4.80;;;25.90;99.90;;;;;;4976527;28;20638;-72
2022/08/19 11:37:24;;;;;;;15.98;5.07;;;26.00;99.90;;;;;;4976533;28;20729;-72
2022/08/19 11:39:51;;;;;;;13.13;4.63;;;26.10;99.90;;;;;;4976884;28;20190;-73
2022/08/19 11:45:03;;;;;;;24.20;5.70;;;26.30;99.90;;;;;;4976112;28;20198;-72
2022/08/19 11:47:31;;;;;;;11.48;4.82;;;26.20;99.90;;;;;;4975519;28;20591;-73
2022/08/19 11:49:58;;;;;;;15.90;4.40;;;26.20;99.90;;;;;;4976398;28;20221;-73
2022/08/19 11:52:25;;;;;;;18.00;4.60;;;26.10;99.90;;;;;;4976099;28;20240;-73
2022/08/19 11:54:52;;;;;;;12.40;5.28;;;26.10;99.90;;;;;;4975643;28;20218;-72
2022/08/19 11:57:20;;;;;;;9.90;4.32;;;26.10;99.90;;;;;;4976289;28;20295;-71
2022/08/19 11:59:52;;;;;;;12.15;4.85;;;26.10;99.90;;;;;;4976054;28;20614;-71
2022/08/19 12:02:19;;;;;;;8.60;4.63;;;26.20;99.90;;;;;;4974662;28;20303;-71
2022/08/19 12:04:47;;;;;;;10.48;4.85;;;26.30;99.90;;;;;;4975530;28;20226;-73
2022/08/19 12:07:14;;;;;;;11.57;4.63;;;26.20;99.90;;;;;;4975771;28;20215;-72
2022/08/19 12:09:41;;;;;;;7.30;4.32;;;26.20;99.90;;;;;;4975328;28;20208;-74
2022/08/19 12:12:08;;;;;;;8.73;4.75;;;26.30;99.90;;;;;;4975298;28;20210;-72
2022/08/19 12:14:37;;;;;;;11.38;4.50;;;26.40;99.90;;;;;;4974658;28;20319;-72
2022/08/19 12:17:07;;;;;;;7.93;4.45;;;26.40;99.90;;;;;;4975525;28;20267;-73
2022/08/19 12:19:35;;;;;;;27.20;5.88;;;26.40;99.90;;;;;;4975765;28;20272;-74
2022/08/19 12:22:03;;;;;;;13.55;6.22;;;26.30;99.90;;;;;;4974816;28;20203;-72
2022/08/19 12:24:32;;;;;;;14.20;5.03;;;26.20;99.90;;;;;;4974574;28;20213;-72
2022/08/19 12:27:01;;;;;;;12.45;4.80;;;26.30;99.90;;;;;;4975045;28;20657;-73
2022/08/19 12:29:29;;;;;;;9.77;4.43;;;26.30;99.90;;;;;;4975358;28;20665;-73
2022/08/19 12:32:01;;;;;;;8.77;4.80;;;26.30;99.90;;;;;;4974213;28;20234;-72
2022/08/19 12:34:30;;;;;;;10.07;4.43;;;26.30;99.90;;;;;;4973934;28;20190;-71
2022/08/19 12:36:57;;;;;;;12.57;5.10;;;26.20;99.90;;;;;;4974040;28;20211;-71
2022/08/19 12:39:25;;;;;;;14.68;4.85;;;26.00;99.90;;;;;;4974285;28;20285;-73
2022/08/19 12:41:52;;;;;;;12.88;4.53;;;26.00;99.90;;;;;;4974731;28;20316;-73
2022/08/19 12:44:20;;;;;;;12.35;5.20;;;25.90;99.90;;;;;;4975088;28;20431;-73
2022/08/19 12:46:48;;;;;;;7.78;4.40;;;25.90;99.90;;;;;;4974871;28;20208;-72
2022/08/19 12:49:17;;;;;;;13.13;5.20;;;25.80;99.90;;;;;;4974563;28;20271;-73
2022/08/19 12:51:44;;;;;;;9.80;4.82;;;25.90;99.90;;;;;;4974792;28;20230;-75
2022/08/19 12:54:11;;;;;;;12.27;4.45;;;25.90;99.90;;;;;;4974486;28;20303;-72
2022/08/19 12:56:38;;;;;;;38.53;6.68;;;25.80;99.90;;;;;;4974588;28;20309;-74
2022/08/19 12:59:07;;;;;;;10.27;4.40;;;25.90;99.90;;;;;;4974214;28;20310;-72
2022/08/19 13:01:34;;;;;;;9.00;4.95;;;25.80;99.90;;;;;;4973639;28;20261;-73
2022/08/19 13:04:01;;;;;;;10.85;4.68;;;25.70;99.90;;;;;;4974289;28;20217;-72
2022/08/19 13:06:29;;;;;;;10.98;4.55;;;25.60;99.90;;;;;;4974144;28;20295;-72
2022/08/19 13:08:57;;;;;;;12.23;4.80;;;25.50;99.90;;;;;;4974119;28;20293;-72
2022/08/19 13:11:25;;;;;;;10.77;4.68;;;25.40;99.90;;;;;;4973802;28;20226;-72